Terminal Aerodrome Forecast
Issued by NWS

Home | Current Version | Previous Version | Text Only | Print | Product List | Glossary On
Versions: 1 2 3 4 5 6 7 8 9 10 11 12 13 14 15
000
FTUS43 KDTX 231700
TAFDET
TAF
KDET 231733Z 2318/2418 01014KT P6SM BKN030
     FM232200 01010KT P6SM BKN040
     FM240200 35007KT P6SM SKC
     FM241400 02007KT P6SM BKN060=

USA.gov is the U.S. government's official web portal to all federal, state and local government web resources and services.